sensor_id;sensor_type;location;lat;lon;timestamp;P1;durP1;ratioP1;P2;durP2;ratioP2
53646;SDS011;39550;52.230;5.194;2023-03-01T00:02:16;11.20;;;8.30;;
53646;SDS011;39550;52.230;5.194;2023-03-01T00:04:41;11.43;;;8.07;;
53646;SDS011;39550;52.230;5.194;2023-03-01T00:07:06;12.13;;;7.90;;
53646;SDS011;39550;52.230;5.194;2023-03-01T00:09:32;11.32;;;8.25;;
53646;SDS011;39550;52.230;5.194;2023-03-01T00:11:57;11.95;;;8.02;;
53646;SDS011;39550;52.230;5.194;2023-03-01T00:14:22;12.45;;;8.65;;
53646;SDS011;39550;52.230;5.194;2023-03-01T00:16:48;10.75;;;7.82;;
53646;SDS011;39550;52.230;5.194;2023-03-01T00:19:14;11.45;;;8.38;;
53646;SDS011;39550;52.230;5.194;2023-03-01T00:21:41;12.20;;;7.93;;
53646;SDS011;39550;52.230;5.194;2023-03-01T00:24:07;12.57;;;8.90;;
53646;SDS011;39550;52.230;5.194;2023-03-01T00:26:33;11.85;;;8.32;;
53646;SDS011;39550;52.230;5.194;2023-03-01T00:28:58;10.90;;;8.05;;
53646;SDS011;39550;52.230;5.194;2023-03-01T00:31:25;12.77;;;8.65;;
53646;SDS011;39550;52.230;5.194;2023-03-01T00:33:56;10.95;;;8.10;;
53646;SDS011;39550;52.230;5.194;2023-03-01T00:38:48;11.10;;;7.72;;
53646;SDS011;39550;52.230;5.194;2023-03-01T00:41:14;11.75;;;8.18;;
53646;SDS011;39550;52.230;5.194;2023-03-01T00:43:41;11.07;;;8.40;;
53646;SDS011;39550;52.230;5.194;2023-03-01T00:46:17;12.82;;;8.52;;
53646;SDS011;39550;52.230;5.194;2023-03-01T00:48:46;11.70;;;8.90;;
53646;SDS011;39550;52.230;5.194;2023-03-01T00:51:12;11.40;;;8.00;;
53646;SDS011;39550;52.230;5.194;2023-03-01T00:53:43;11.80;;;8.88;;
53646;SDS011;39550;52.230;5.194;2023-03-01T00:56:09;10.60;;;7.47;;
53646;SDS011;39550;52.230;5.194;2023-03-01T00:58:37;11.30;;;8.82;;
53646;SDS011;39550;52.230;5.194;2023-03-01T01:01:10;11.77;;;8.15;;
53646;SDS011;39550;52.230;5.194;2023-03-01T01:03:43;11.47;;;7.83;;
53646;SDS011;39550;52.230;5.194;2023-03-01T01:06:19;12.43;;;8.65;;
53646;SDS011;39550;52.230;5.194;2023-03-01T01:08:46;12.10;;;7.95;;
53646;SDS011;39550;52.230;5.194;2023-03-01T01:11:12;11.45;;;7.95;;
53646;SDS011;39550;52.230;5.194;2023-03-01T01:13:38;11.80;;;8.82;;
53646;SDS011;39550;52.230;5.194;2023-03-01T01:16:04;13.57;;;9.10;;
53646;SDS011;39550;52.230;5.194;2023-03-01T01:18:30;12.27;;;8.93;;
53646;SDS011;39550;52.230;5.194;2023-03-01T01:20:56;10.18;;;7.72;;
53646;SDS011;39550;52.230;5.194;2023-03-01T01:23:21;11.70;;;8.43;;
53646;SDS011;39550;52.230;5.194;2023-03-01T01:25:47;11.10;;;7.90;;
53646;SDS011;39550;52.230;5.194;2023-03-01T01:28:12;12.40;;;8.88;;
53646;SDS011;39550;52.230;5.194;2023-03-01T01:30:37;11.77;;;8.82;;
53646;SDS011;39550;52.230;5.194;2023-03-01T01:33:03;11.82;;;8.20;;
53646;SDS011;39550;52.230;5.194;2023-03-01T01:35:28;11.85;;;7.93;;
53646;SDS011;39550;52.230;5.194;2023-03-01T01:37:53;11.88;;;9.27;;
53646;SDS011;39550;52.230;5.194;2023-03-01T01:40:19;11.38;;;8.73;;
53646;SDS011;39550;52.230;5.194;2023-03-01T01:42:44;11.35;;;7.85;;
53646;SDS011;39550;52.230;5.194;2023-03-01T01:48:03;11.98;;;8.23;;
53646;SDS011;39550;52.230;5.194;2023-03-01T01:50:31;11.15;;;8.38;;
53646;SDS011;39550;52.230;5.194;2023-03-01T01:53:08;11.23;;;8.25;;
53646;SDS011;39550;52.230;5.194;2023-03-01T01:55:38;11.80;;;8.75;;
53646;SDS011;39550;52.230;5.194;2023-03-01T01:58:07;11.63;;;8.40;;
53646;SDS011;39550;52.230;5.194;2023-03-01T02:00:35;11.55;;;8.93;;
53646;SDS011;39550;52.230;5.194;2023-03-01T02:03:04;11.43;;;8.85;;
53646;SDS011;39550;52.230;5.194;2023-03-01T02:08:12;13.52;;;8.55;;
53646;SDS011;39550;52.230;5.194;2023-03-01T02:10:39;12.20;;;8.75;;
53646;SDS011;39550;52.230;5.194;2023-03-01T02:13:06;10.65;;;8.20;;
53646;SDS011;39550;52.230;5.194;2023-03-01T02:15:32;12.38;;;8.10;;
53646;SDS011;39550;52.230;5.194;2023-03-01T02:17:58;11.13;;;8.27;;
53646;SDS011;39550;52.230;5.194;2023-03-01T02:23:14;10.88;;;8.45;;
53646;SDS011;39550;52.230;5.194;2023-03-01T02:28:36;10.57;;;8.60;;
53646;SDS011;39550;52.230;5.194;2023-03-01T02:31:07;10.85;;;8.23;;
53646;SDS011;39550;52.230;5.194;2023-03-01T02:33:53;12.93;;;9.20;;
53646;SDS011;39550;52.230;5.194;2023-03-01T02:36:21;10.95;;;8.75;;
53646;SDS011;39550;52.230;5.194;2023-03-01T02:38:51;14.35;;;8.95;;
53646;SDS011;39550;52.230;5.194;2023-03-01T02:41:21;11.70;;;8.52;;
53646;SDS011;39550;52.230;5.194;2023-03-01T02:43:47;11.40;;;8.35;;
53646;SDS011;39550;52.230;5.194;2023-03-01T02:46:17;15.82;;;9.00;;
53646;SDS011;39550;52.230;5.194;2023-03-01T02:48:49;13.63;;;9.25;;
53646;SDS011;39550;52.230;5.194;2023-03-01T02:54:08;13.30;;;8.93;;
53646;SDS011;39550;52.230;5.194;2023-03-01T02:56:35;10.65;;;7.90;;
53646;SDS011;39550;52.230;5.194;2023-03-01T02:59:01;11.35;;;8.40;;
53646;SDS011;39550;52.230;5.194;2023-03-01T03:01:27;13.18;;;9.02;;
53646;SDS011;39550;52.230;5.194;2023-03-01T03:04:03;10.70;;;7.82;;
53646;SDS011;39550;52.230;5.194;2023-03-01T03:06:32;12.25;;;9.05;;
53646;SDS011;39550;52.230;5.194;2023-03-01T03:08:58;11.32;;;8.65;;
53646;SDS011;39550;52.230;5.194;2023-03-01T03:11:24;12.32;;;8.50;;
53646;SDS011;39550;52.230;5.194;2023-03-01T03:13:49;11.50;;;8.30;;
53646;SDS011;39550;52.230;5.194;2023-03-01T03:16:17;13.55;;;9.38;;
53646;SDS011;39550;52.230;5.194;2023-03-01T03:18:42;11.60;;;8.50;;
53646;SDS011;39550;52.230;5.194;2023-03-01T03:21:08;11.98;;;9.60;;
53646;SDS011;39550;52.230;5.194;2023-03-01T03:23:35;12.85;;;8.90;;
53646;SDS011;39550;52.230;5.194;2023-03-01T03:26:01;12.45;;;9.20;;
53646;SDS011;39550;52.230;5.194;2023-03-01T03:28:29;12.68;;;8.48;;
53646;SDS011;39550;52.230;5.194;2023-03-01T03:30:58;16.08;;;8.77;;
53646;SDS011;39550;52.230;5.194;2023-03-01T03:33:28;12.38;;;9.43;;
53646;SDS011;39550;52.230;5.194;2023-03-01T03:35:56;13.90;;;9.32;;
53646;SDS011;39550;52.230;5.194;2023-03-01T03:38:22;13.10;;;8.95;;
53646;SDS011;39550;52.230;5.194;2023-03-01T03:40:51;12.80;;;9.50;;
53646;SDS011;39550;52.230;5.194;2023-03-01T03:43:26;15.70;;;9.18;;
53646;SDS011;39550;52.230;5.194;2023-03-01T03:45:51;12.25;;;8.70;;
53646;SDS011;39550;52.230;5.194;2023-03-01T03:48:17;10.98;;;8.80;;
53646;SDS011;39550;52.230;5.194;2023-03-01T03:50:47;11.55;;;8.50;;
53646;SDS011;39550;52.230;5.194;2023-03-01T03:53:17;13.15;;;9.60;;
53646;SDS011;39550;52.230;5.194;2023-03-01T03:55:43;12.45;;;8.52;;
53646;SDS011;39550;52.230;5.194;2023-03-01T03:58:09;13.80;;;9.52;;
53646;SDS011;39550;52.230;5.194;2023-03-01T04:00:43;11.27;;;8.90;;
53646;SDS011;39550;52.230;5.194;2023-03-01T04:03:09;12.18;;;9.02;;
53646;SDS011;39550;52.230;5.194;2023-03-01T04:05:38;11.60;;;8.77;;
53646;SDS011;39550;52.230;5.194;2023-03-01T04:08:04;12.57;;;9.20;;
53646;SDS011;39550;52.230;5.194;2023-03-01T04:10:34;12.93;;;8.90;;
53646;SDS011;39550;52.230;5.194;2023-03-01T04:13:09;17.05;;;10.20;;
53646;SDS011;39550;52.230;5.194;2023-03-01T04:15:35;12.27;;;9.10;;
53646;SDS011;39550;52.230;5.194;2023-03-01T04:18:01;12.70;;;9.32;;
53646;SDS011;39550;52.230;5.194;2023-03-01T04:20:28;12.90;;;9.25;;
53646;SDS011;39550;52.230;5.194;2023-03-01T04:22:59;12.57;;;8.90;;
53646;SDS011;39550;52.230;5.194;2023-03-01T04:28:23;12.30;;;9.30;;
53646;SDS011;39550;52.230;5.194;2023-03-01T04:30:51;13.80;;;10.00;;
53646;SDS011;39550;52.230;5.194;2023-03-01T04:33:17;13.35;;;8.95;;
53646;SDS011;39550;52.230;5.194;2023-03-01T04:35:43;12.13;;;8.90;;
53646;SDS011;39550;52.230;5.194;2023-03-01T04:38:09;11.30;;;8.88;;
53646;SDS011;39550;52.230;5.194;2023-03-01T04:40:34;13.25;;;9.43;;
53646;SDS011;39550;52.230;5.194;2023-03-01T04:43:00;11.30;;;8.90;;
53646;SDS011;39550;52.230;5.194;2023-03-01T04:45:27;12.30;;;9.40;;
53646;SDS011;39550;52.230;5.194;2023-03-01T04:47:52;12.95;;;9.15;;
53646;SDS011;39550;52.230;5.194;2023-03-01T04:50:18;11.90;;;9.60;;
53646;SDS011;39550;52.230;5.194;2023-03-01T04:52:48;11.32;;;8.70;;
53646;SDS011;39550;52.230;5.194;2023-03-01T04:55:14;13.48;;;9.95;;
53646;SDS011;39550;52.230;5.194;2023-03-01T04:57:40;12.23;;;9.05;;
53646;SDS011;39550;52.230;5.194;2023-03-01T05:00:06;12.38;;;9.38;;
53646;SDS011;39550;52.230;5.194;2023-03-01T05:02:47;12.57;;;9.57;;
53646;SDS011;39550;52.230;5.194;2023-03-01T05:05:21;12.32;;;9.35;;
53646;SDS011;39550;52.230;5.194;2023-03-01T05:07:50;12.88;;;9.25;;
53646;SDS011;39550;52.230;5.194;2023-03-01T05:10:16;13.02;;;9.73;;
53646;SDS011;39550;52.230;5.194;2023-03-01T05:12:42;13.30;;;8.98;;
53646;SDS011;39550;52.230;5.194;2023-03-01T05:15:07;12.23;;;9.20;;
53646;SDS011;39550;52.230;5.194;2023-03-01T05:17:33;12.30;;;9.27;;
53646;SDS011;39550;52.230;5.194;2023-03-01T05:19:59;12.68;;;9.32;;
53646;SDS011;39550;52.230;5.194;2023-03-01T05:22:25;12.52;;;9.13;;
53646;SDS011;39550;52.230;5.194;2023-03-01T05:24:51;13.60;;;9.73;;
53646;SDS011;39550;52.230;5.194;2023-03-01T05:27:16;11.88;;;8.98;;
53646;SDS011;39550;52.230;5.194;2023-03-01T05:29:41;13.80;;;9.25;;
53646;SDS011;39550;52.230;5.194;2023-03-01T05:32:07;12.95;;;9.30;;
53646;SDS011;39550;52.230;5.194;2023-03-01T05:34:34;11.95;;;9.13;;
53646;SDS011;39550;52.230;5.194;2023-03-01T05:37:01;13.35;;;9.68;;
53646;SDS011;39550;52.230;5.194;2023-03-01T05:39:27;14.15;;;10.20;;
53646;SDS011;39550;52.230;5.194;2023-03-01T05:41:57;13.63;;;10.20;;
53646;SDS011;39550;52.230;5.194;2023-03-01T05:47:46;11.88;;;9.60;;
53646;SDS011;39550;52.230;5.194;2023-03-01T05:50:22;14.00;;;10.38;;
53646;SDS011;39550;52.230;5.194;2023-03-01T05:53:12;12.63;;;9.65;;
53646;SDS011;39550;52.230;5.194;2023-03-01T05:55:40;12.40;;;9.25;;
53646;SDS011;39550;52.230;5.194;2023-03-01T05:58:09;13.13;;;9.55;;
53646;SDS011;39550;52.230;5.194;2023-03-01T06:00:36;12.52;;;9.32;;
53646;SDS011;39550;52.230;5.194;2023-03-01T06:03:02;12.80;;;9.70;;
53646;SDS011;39550;52.230;5.194;2023-03-01T06:05:28;14.75;;;10.63;;
53646;SDS011;39550;52.230;5.194;2023-03-01T06:07:54;12.38;;;9.57;;
53646;SDS011;39550;52.230;5.194;2023-03-01T06:10:20;15.32;;;10.45;;
53646;SDS011;39550;52.230;5.194;2023-03-01T06:12:47;14.63;;;9.93;;
53646;SDS011;39550;52.230;5.194;2023-03-01T06:15:13;13.05;;;10.18;;
53646;SDS011;39550;52.230;5.194;2023-03-01T06:17:40;14.82;;;10.45;;
53646;SDS011;39550;52.230;5.194;2023-03-01T06:20:08;14.32;;;10.30;;
53646;SDS011;39550;52.230;5.194;2023-03-01T06:25:03;14.57;;;11.15;;
53646;SDS011;39550;52.230;5.194;2023-03-01T06:27:28;15.13;;;10.40;;
53646;SDS011;39550;52.230;5.194;2023-03-01T06:29:54;12.93;;;10.38;;
53646;SDS011;39550;52.230;5.194;2023-03-01T06:32:19;18.30;;;10.90;;
53646;SDS011;39550;52.230;5.194;2023-03-01T06:34:45;14.88;;;10.63;;
53646;SDS011;39550;52.230;5.194;2023-03-01T06:37:10;14.88;;;10.27;;
53646;SDS011;39550;52.230;5.194;2023-03-01T06:39:36;14.07;;;10.35;;
53646;SDS011;39550;52.230;5.194;2023-03-01T06:42:02;15.70;;;11.43;;
53646;SDS011;39550;52.230;5.194;2023-03-01T06:44:27;16.13;;;10.88;;
53646;SDS011;39550;52.230;5.194;2023-03-01T06:46:53;14.02;;;10.73;;
53646;SDS011;39550;52.230;5.194;2023-03-01T06:49:18;17.50;;;11.68;;
53646;SDS011;39550;52.230;5.194;2023-03-01T06:51:44;15.65;;;11.27;;
53646;SDS011;39550;52.230;5.194;2023-03-01T06:54:11;17.10;;;11.02;;
53646;SDS011;39550;52.230;5.194;2023-03-01T06:56:36;16.80;;;11.40;;
53646;SDS011;39550;52.230;5.194;2023-03-01T06:59:02;14.73;;;11.05;;
53646;SDS011;39550;52.230;5.194;2023-03-01T07:01:28;17.52;;;12.07;;
53646;SDS011;39550;52.230;5.194;2023-03-01T07:03:54;15.18;;;11.80;;
53646;SDS011;39550;52.230;5.194;2023-03-01T07:06:19;15.40;;;11.38;;
53646;SDS011;39550;52.230;5.194;2023-03-01T07:08:44;15.95;;;11.02;;
53646;SDS011;39550;52.230;5.194;2023-03-01T07:11:10;16.30;;;11.52;;
53646;SDS011;39550;52.230;5.194;2023-03-01T07:13:35;17.08;;;12.15;;
53646;SDS011;39550;52.230;5.194;2023-03-01T07:16:00;14.68;;;11.52;;
53646;SDS011;39550;52.230;5.194;2023-03-01T07:18:26;14.48;;;10.68;;
53646;SDS011;39550;52.230;5.194;2023-03-01T07:20:51;17.13;;;10.90;;
53646;SDS011;39550;52.230;5.194;2023-03-01T07:23:17;14.15;;;10.38;;
53646;SDS011;39550;52.230;5.194;2023-03-01T07:25:43;15.85;;;11.73;;
53646;SDS011;39550;52.230;5.194;2023-03-01T07:28:09;15.90;;;11.95;;
53646;SDS011;39550;52.230;5.194;2023-03-01T07:30:34;16.35;;;11.63;;
53646;SDS011;39550;52.230;5.194;2023-03-01T07:32:59;16.48;;;12.35;;
53646;SDS011;39550;52.230;5.194;2023-03-01T07:35:25;15.93;;;11.05;;
53646;SDS011;39550;52.230;5.194;2023-03-01T07:37:52;17.38;;;12.18;;
53646;SDS011;39550;52.230;5.194;2023-03-01T07:40:18;17.83;;;12.02;;
53646;SDS011;39550;52.230;5.194;2023-03-01T07:42:44;16.98;;;12.50;;
53646;SDS011;39550;52.230;5.194;2023-03-01T07:45:09;16.23;;;11.25;;
53646;SDS011;39550;52.230;5.194;2023-03-01T07:47:35;15.93;;;11.18;;
53646;SDS011;39550;52.230;5.194;2023-03-01T07:50:01;16.15;;;11.25;;
53646;SDS011;39550;52.230;5.194;2023-03-01T07:52:27;16.02;;;11.18;;
53646;SDS011;39550;52.230;5.194;2023-03-01T07:54:53;14.95;;;11.18;;
53646;SDS011;39550;52.230;5.194;2023-03-01T07:57:19;16.73;;;11.85;;
53646;SDS011;39550;52.230;5.194;2023-03-01T07:59:44;16.70;;;12.48;;
53646;SDS011;39550;52.230;5.194;2023-03-01T08:02:10;16.90;;;10.80;;
53646;SDS011;39550;52.230;5.194;2023-03-01T08:07:05;16.60;;;12.43;;
53646;SDS011;39550;52.230;5.194;2023-03-01T08:09:31;17.60;;;12.23;;
53646;SDS011;39550;52.230;5.194;2023-03-01T08:11:56;16.85;;;11.82;;
53646;SDS011;39550;52.230;5.194;2023-03-01T08:14:24;16.15;;;12.02;;
53646;SDS011;39550;52.230;5.194;2023-03-01T08:16:50;17.90;;;12.38;;
53646;SDS011;39550;52.230;5.194;2023-03-01T08:19:15;18.25;;;11.45;;
53646;SDS011;39550;52.230;5.194;2023-03-01T08:21:40;16.58;;;11.20;;
53646;SDS011;39550;52.230;5.194;2023-03-01T08:24:06;16.38;;;12.30;;
53646;SDS011;39550;52.230;5.194;2023-03-01T08:26:32;17.20;;;12.13;;
53646;SDS011;39550;52.230;5.194;2023-03-01T08:28:59;17.05;;;12.10;;
53646;SDS011;39550;52.230;5.194;2023-03-01T08:31:29;15.73;;;11.98;;
53646;SDS011;39550;52.230;5.194;2023-03-01T08:33:56;18.30;;;12.68;;
53646;SDS011;39550;52.230;5.194;2023-03-01T08:36:25;15.30;;;10.93;;
53646;SDS011;39550;52.230;5.194;2023-03-01T08:38:55;17.20;;;12.82;;
53646;SDS011;39550;52.230;5.194;2023-03-01T08:41:21;18.95;;;12.38;;
53646;SDS011;39550;52.230;5.194;2023-03-01T08:43:47;16.48;;;11.77;;
53646;SDS011;39550;52.230;5.194;2023-03-01T08:46:12;17.05;;;12.25;;
53646;SDS011;39550;52.230;5.194;2023-03-01T08:48:38;19.10;;;12.82;;
53646;SDS011;39550;52.230;5.194;2023-03-01T08:51:08;17.45;;;11.50;;
53646;SDS011;39550;52.230;5.194;2023-03-01T08:53:33;16.52;;;11.48;;
53646;SDS011;39550;52.230;5.194;2023-03-01T08:56:02;16.67;;;11.13;;
53646;SDS011;39550;52.230;5.194;2023-03-01T08:58:28;16.58;;;11.50;;
53646;SDS011;39550;52.230;5.194;2023-03-01T09:00:54;15.68;;;11.57;;
53646;SDS011;39550;52.230;5.194;2023-03-01T09:03:21;19.30;;;13.38;;
53646;SDS011;39550;52.230;5.194;2023-03-01T09:05:47;16.90;;;11.40;;
53646;SDS011;39550;52.230;5.194;2023-03-01T09:08:14;18.23;;;11.60;;
53646;SDS011;39550;52.230;5.194;2023-03-01T09:10:39;17.15;;;11.93;;
53646;SDS011;39550;52.230;5.194;2023-03-01T09:13:05;17.27;;;11.43;;
53646;SDS011;39550;52.230;5.194;2023-03-01T09:15:30;17.35;;;10.70;;
53646;SDS011;39550;52.230;5.194;2023-03-01T09:17:55;16.13;;;11.73;;
53646;SDS011;39550;52.230;5.194;2023-03-01T09:20:21;16.50;;;11.40;;
53646;SDS011;39550;52.230;5.194;2023-03-01T09:22:46;16.17;;;11.07;;
53646;SDS011;39550;52.230;5.194;2023-03-01T09:25:11;14.75;;;10.70;;
53646;SDS011;39550;52.230;5.194;2023-03-01T09:27:37;15.57;;;10.93;;
53646;SDS011;39550;52.230;5.194;2023-03-01T09:30:02;16.33;;;11.02;;
53646;SDS011;39550;52.230;5.194;2023-03-01T09:32:30;16.30;;;10.68;;
53646;SDS011;39550;52.230;5.194;2023-03-01T09:34:55;13.85;;;10.38;;
53646;SDS011;39550;52.230;5.194;2023-03-01T09:37:29;16.02;;;11.20;;
53646;SDS011;39550;52.230;5.194;2023-03-01T09:39:56;16.55;;;10.75;;
53646;SDS011;39550;52.230;5.194;2023-03-01T09:42:21;15.02;;;10.70;;
53646;SDS011;39550;52.230;5.194;2023-03-01T09:45:05;15.27;;;10.70;;
53646;SDS011;39550;52.230;5.194;2023-03-01T09:47:36;13.73;;;10.13;;
53646;SDS011;39550;52.230;5.194;2023-03-01T09:50:05;14.73;;;10.05;;
53646;SDS011;39550;52.230;5.194;2023-03-01T09:52:40;15.35;;;10.98;;
53646;SDS011;39550;52.230;5.194;2023-03-01T09:55:15;14.48;;;10.15;;
53646;SDS011;39550;52.230;5.194;2023-03-01T09:57:47;14.52;;;10.00;;
53646;SDS011;39550;52.230;5.194;2023-03-01T10:02:46;15.88;;;9.82;;
53646;SDS011;39550;52.230;5.194;2023-03-01T10:08:33;13.95;;;10.23;;
53646;SDS011;39550;52.230;5.194;2023-03-01T10:11:04;14.57;;;9.45;;
53646;SDS011;39550;52.230;5.194;2023-03-01T10:19:36;16.23;;;10.20;;
53646;SDS011;39550;52.230;5.194;2023-03-01T10:24:35;13.18;;;8.88;;
53646;SDS011;39550;52.230;5.194;2023-03-01T10:27:04;14.57;;;9.60;;
53646;SDS011;39550;52.230;5.194;2023-03-01T10:29:37;13.38;;;8.75;;
53646;SDS011;39550;52.230;5.194;2023-03-01T10:32:22;13.85;;;8.73;;
53646;SDS011;39550;52.230;5.194;2023-03-01T10:34:48;12.45;;;8.07;;
53646;SDS011;39550;52.230;5.194;2023-03-01T10:37:15;12.40;;;8.90;;
53646;SDS011;39550;52.230;5.194;2023-03-01T10:40:05;12.75;;;7.70;;
53646;SDS011;39550;52.230;5.194;2023-03-01T10:42:36;13.02;;;8.50;;
53646;SDS011;39550;52.230;5.194;2023-03-01T10:47:44;11.40;;;7.78;;
53646;SDS011;39550;52.230;5.194;2023-03-01T10:50:20;10.82;;;8.02;;
53646;SDS011;39550;52.230;5.194;2023-03-01T10:52:57;14.13;;;7.63;;
53646;SDS011;39550;52.230;5.194;2023-03-01T10:57:50;11.55;;;7.45;;
53646;SDS011;39550;52.230;5.194;2023-03-01T11:00:32;11.52;;;7.60;;
53646;SDS011;39550;52.230;5.194;2023-03-01T11:05:23;12.75;;;7.93;;
53646;SDS011;39550;52.230;5.194;2023-03-01T11:10:28;10.52;;;7.20;;
53646;SDS011;39550;52.230;5.194;2023-03-01T11:13:14;11.73;;;7.00;;
53646;SDS011;39550;52.230;5.194;2023-03-01T11:15:41;13.48;;;7.55;;
53646;SDS011;39550;52.230;5.194;2023-03-01T11:18:18;12.43;;;7.40;;
53646;SDS011;39550;52.230;5.194;2023-03-01T11:20:45;12.18;;;7.60;;
53646;SDS011;39550;52.230;5.194;2023-03-01T11:23:12;12.85;;;7.28;;
53646;SDS011;39550;52.230;5.194;2023-03-01T11:25:42;10.00;;;6.70;;
53646;SDS011;39550;52.230;5.194;2023-03-01T11:28:13;10.43;;;6.80;;
53646;SDS011;39550;52.230;5.194;2023-03-01T11:30:48;11.75;;;7.35;;
53646;SDS011;39550;52.230;5.194;2023-03-01T11:33:17;9.85;;;6.50;;
53646;SDS011;39550;52.230;5.194;2023-03-01T11:35:57;9.93;;;6.32;;
53646;SDS011;39550;52.230;5.194;2023-03-01T11:38:29;9.73;;;6.38;;
53646;SDS011;39550;52.230;5.194;2023-03-01T11:41:15;9.88;;;7.15;;
53646;SDS011;39550;52.230;5.194;2023-03-01T11:47:27;11.45;;;6.82;;
53646;SDS011;39550;52.230;5.194;2023-03-01T12:14:56;9.75;;;6.47;;
53646;SDS011;39550;52.230;5.194;2023-03-01T12:25:46;9.25;;;6.57;;
53646;SDS011;39550;52.230;5.194;2023-03-01T12:36:53;10.63;;;6.20;;
53646;SDS011;39550;52.230;5.194;2023-03-01T12:45:04;9.32;;;6.07;;
53646;SDS011;39550;52.230;5.194;2023-03-01T12:50:48;9.00;;;5.63;;
53646;SDS011;39550;52.230;5.194;2023-03-01T12:53:20;9.90;;;5.90;;
53646;SDS011;39550;52.230;5.194;2023-03-01T12:55:48;8.57;;;5.72;;
53646;SDS011;39550;52.230;5.194;2023-03-01T13:04:08;9.25;;;5.72;;
53646;SDS011;39550;52.230;5.194;2023-03-01T13:12:41;8.18;;;6.00;;
53646;SDS011;39550;52.230;5.194;2023-03-01T13:15:24;9.23;;;5.30;;
53646;SDS011;39550;52.230;5.194;2023-03-01T13:31:06;9.48;;;6.03;;
53646;SDS011;39550;52.230;5.194;2023-03-01T13:33:53;7.40;;;5.47;;
53646;SDS011;39550;52.230;5.194;2023-03-01T13:37:08;7.70;;;5.53;;
53646;SDS011;39550;52.230;5.194;2023-03-01T13:41:56;10.05;;;5.53;;
53646;SDS011;39550;52.230;5.194;2023-03-01T13:49:53;11.85;;;5.63;;
53646;SDS011;39550;52.230;5.194;2023-03-01T13:52:38;7.20;;;4.88;;
53646;SDS011;39550;52.230;5.194;2023-03-01T13:55:21;8.50;;;5.28;;
53646;SDS011;39550;52.230;5.194;2023-03-01T13:57:51;8.10;;;5.55;;
53646;SDS011;39550;52.230;5.194;2023-03-01T14:03:01;8.15;;;5.65;;
53646;SDS011;39550;52.230;5.194;2023-03-01T14:05:38;7.95;;;5.07;;
53646;SDS011;39550;52.230;5.194;2023-03-01T14:08:13;8.38;;;6.00;;
53646;SDS011;39550;52.230;5.194;2023-03-01T14:11:00;8.63;;;5.18;;
53646;SDS011;39550;52.230;5.194;2023-03-01T14:19:31;6.45;;;4.55;;
53646;SDS011;39550;52.230;5.194;2023-03-01T14:22:19;7.07;;;4.97;;
53646;SDS011;39550;52.230;5.194;2023-03-01T14:27:19;8.48;;;5.25;;
53646;SDS011;39550;52.230;5.194;2023-03-01T14:29:53;8.40;;;5.00;;
53646;SDS011;39550;52.230;5.194;2023-03-01T14:32:25;8.18;;;4.93;;
53646;SDS011;39550;52.230;5.194;2023-03-01T14:34:52;8.43;;;4.78;;
53646;SDS011;39550;52.230;5.194;2023-03-01T14:50:07;8.27;;;5.60;;
53646;SDS011;39550;52.230;5.194;2023-03-01T14:52:48;7.75;;;5.10;;
53646;SDS011;39550;52.230;5.194;2023-03-01T14:55:18;8.73;;;4.90;;
53646;SDS011;39550;52.230;5.194;2023-03-01T14:57:47;7.90;;;5.35;;
53646;SDS011;39550;52.230;5.194;2023-03-01T15:00:16;10.43;;;5.55;;
53646;SDS011;39550;52.230;5.194;2023-03-01T15:02:45;7.57;;;5.35;;
53646;SDS011;39550;52.230;5.194;2023-03-01T15:05:13;8.30;;;5.88;;
53646;SDS011;39550;52.230;5.194;2023-03-01T15:07:40;8.48;;;5.38;;
53646;SDS011;39550;52.230;5.194;2023-03-01T15:10:19;10.15;;;5.85;;
53646;SDS011;39550;52.230;5.194;2023-03-01T15:12:55;8.43;;;5.75;;
53646;SDS011;39550;52.230;5.194;2023-03-01T15:17:56;6.63;;;4.80;;
53646;SDS011;39550;52.230;5.194;2023-03-01T15:20:26;9.55;;;5.47;;
53646;SDS011;39550;52.230;5.194;2023-03-01T15:22:54;9.30;;;5.60;;
53646;SDS011;39550;52.230;5.194;2023-03-01T15:25:22;7.53;;;5.15;;
53646;SDS011;39550;52.230;5.194;2023-03-01T15:27:50;7.97;;;5.90;;
53646;SDS011;39550;52.230;5.194;2023-03-01T15:30:19;7.15;;;5.00;;
53646;SDS011;39550;52.230;5.194;2023-03-01T15:32:47;8.00;;;4.85;;
53646;SDS011;39550;52.230;5.194;2023-03-01T15:41:24;8.65;;;5.38;;
53646;SDS011;39550;52.230;5.194;2023-03-01T15:43:55;10.13;;;5.80;;
53646;SDS011;39550;52.230;5.194;2023-03-01T15:46:26;8.55;;;5.65;;
53646;SDS011;39550;52.230;5.194;2023-03-01T15:49:18;9.90;;;5.82;;
53646;SDS011;39550;52.230;5.194;2023-03-01T15:51:51;8.60;;;5.50;;
53646;SDS011;39550;52.230;5.194;2023-03-01T15:54:20;8.50;;;5.30;;
53646;SDS011;39550;52.230;5.194;2023-03-01T15:56:48;8.48;;;5.53;;
53646;SDS011;39550;52.230;5.194;2023-03-01T15:59:15;8.90;;;5.60;;
53646;SDS011;39550;52.230;5.194;2023-03-01T16:01:41;8.27;;;5.50;;
53646;SDS011;39550;52.230;5.194;2023-03-01T16:04:11;11.65;;;5.75;;
53646;SDS011;39550;52.230;5.194;2023-03-01T16:06:41;8.60;;;5.35;;
53646;SDS011;39550;52.230;5.194;2023-03-01T16:09:06;8.05;;;5.55;;
53646;SDS011;39550;52.230;5.194;2023-03-01T16:11:32;10.07;;;5.60;;
53646;SDS011;39550;52.230;5.194;2023-03-01T16:13:59;8.18;;;5.55;;
53646;SDS011;39550;52.230;5.194;2023-03-01T16:16:24;8.18;;;5.47;;
53646;SDS011;39550;52.230;5.194;2023-03-01T16:18:49;8.45;;;5.38;;
53646;SDS011;39550;52.230;5.194;2023-03-01T16:21:17;8.95;;;6.18;;
53646;SDS011;39550;52.230;5.194;2023-03-01T16:23:45;8.20;;;5.65;;
53646;SDS011;39550;52.230;5.194;2023-03-01T16:26:11;8.82;;;5.75;;
53646;SDS011;39550;52.230;5.194;2023-03-01T16:28:38;8.10;;;5.18;;
53646;SDS011;39550;52.230;5.194;2023-03-01T16:31:04;8.82;;;5.68;;
53646;SDS011;39550;52.230;5.194;2023-03-01T16:33:30;8.15;;;5.80;;
53646;SDS011;39550;52.230;5.194;2023-03-01T16:35:56;8.18;;;5.53;;
53646;SDS011;39550;52.230;5.194;2023-03-01T16:38:21;8.43;;;6.03;;
53646;SDS011;39550;52.230;5.194;2023-03-01T16:40:47;9.10;;;5.50;;
53646;SDS011;39550;52.230;5.194;2023-03-01T16:43:13;8.95;;;5.97;;
53646;SDS011;39550;52.230;5.194;2023-03-01T16:45:39;9.10;;;5.95;;
53646;SDS011;39550;52.230;5.194;2023-03-01T16:48:05;10.68;;;6.30;;
53646;SDS011;39550;52.230;5.194;2023-03-01T16:50:32;8.43;;;6.13;;
53646;SDS011;39550;52.230;5.194;2023-03-01T16:52:58;8.50;;;5.50;;
53646;SDS011;39550;52.230;5.194;2023-03-01T16:55:23;9.18;;;5.80;;
53646;SDS011;39550;52.230;5.194;2023-03-01T16:57:48;10.43;;;5.72;;
53646;SDS011;39550;52.230;5.194;2023-03-01T17:00:14;8.82;;;5.75;;
53646;SDS011;39550;52.230;5.194;2023-03-01T17:02:40;11.27;;;5.95;;
53646;SDS011;39550;52.230;5.194;2023-03-01T17:05:06;9.73;;;6.05;;
53646;SDS011;39550;52.230;5.194;2023-03-01T17:07:33;8.88;;;5.88;;
53646;SDS011;39550;52.230;5.194;2023-03-01T17:10:03;9.00;;;5.53;;
53646;SDS011;39550;52.230;5.194;2023-03-01T17:12:30;9.65;;;6.30;;
53646;SDS011;39550;52.230;5.194;2023-03-01T17:14:56;9.95;;;6.53;;
53646;SDS011;39550;52.230;5.194;2023-03-01T17:17:22;8.38;;;5.88;;
53646;SDS011;39550;52.230;5.194;2023-03-01T17:19:47;7.25;;;4.68;;
53646;SDS011;39550;52.230;5.194;2023-03-01T17:22:12;8.85;;;5.70;;
53646;SDS011;39550;52.230;5.194;2023-03-01T17:24:39;8.70;;;5.88;;
53646;SDS011;39550;52.230;5.194;2023-03-01T17:27:04;8.63;;;5.30;;
53646;SDS011;39550;52.230;5.194;2023-03-01T17:29:30;9.57;;;5.20;;
53646;SDS011;39550;52.230;5.194;2023-03-01T17:31:56;9.43;;;6.00;;
53646;SDS011;39550;52.230;5.194;2023-03-01T17:34:22;9.45;;;5.45;;